sensor_id;sensor_type;location;lat;lon;timestamp;temperature;humidity
13754;DHT22;6948;51.216;6.778;2023-05-24T00:01:51;11.40;1.00
13754;DHT22;6948;51.216;6.778;2023-05-24T00:04:17;11.30;1.00
13754;DHT22;6948;51.216;6.778;2023-05-24T00:06:44;11.30;1.00
13754;DHT22;6948;51.216;6.778;2023-05-24T00:09:10;11.30;1.00
13754;DHT22;6948;51.216;6.778;2023-05-24T00:11:37;11.20;1.00
13754;DHT22;6948;51.216;6.778;2023-05-24T00:14:03;11.20;1.00
13754;DHT22;6948;51.216;6.778;2023-05-24T00:16:28;11.20;1.00
13754;DHT22;6948;51.216;6.778;2023-05-24T00:18:54;11.30;1.00
13754;DHT22;6948;51.216;6.778;2023-05-24T00:21:20;11.20;1.00
13754;DHT22;6948;51.216;6.778;2023-05-24T00:23:45;11.20;1.00
13754;DHT22;6948;51.216;6.778;2023-05-24T00:26:12;11.10;1.00
13754;DHT22;6948;51.216;6.778;2023-05-24T00:28:37;11.20;1.00
13754;DHT22;6948;51.216;6.778;2023-05-24T00:31:03;11.10;1.00
13754;DHT22;6948;51.216;6.778;2023-05-24T00:33:29;11.10;1.00
13754;DHT22;6948;51.216;6.778;2023-05-24T00:35:54;11.10;1.00
13754;DHT22;6948;51.216;6.778;2023-05-24T00:38:22;11.10;1.00
13754;DHT22;6948;51.216;6.778;2023-05-24T00:40:48;11.10;1.00
13754;DHT22;6948;51.216;6.778;2023-05-24T00:43:14;11.10;1.00
13754;DHT22;6948;51.216;6.778;2023-05-24T00:45:40;11.00;1.00
13754;DHT22;6948;51.216;6.778;2023-05-24T00:48:06;10.80;1.00
13754;DHT22;6948;51.216;6.778;2023-05-24T00:50:32;10.90;1.00
13754;DHT22;6948;51.216;6.778;2023-05-24T00:53:01;10.80;1.00
13754;DHT22;6948;51.216;6.778;2023-05-24T00:55:27;10.90;1.00
13754;DHT22;6948;51.216;6.778;2023-05-24T00:57:55;10.80;1.00
13754;DHT22;6948;51.216;6.778;2023-05-24T01:00:22;10.90;1.00
13754;DHT22;6948;51.216;6.778;2023-05-24T01:02:48;11.00;1.00
13754;DHT22;6948;51.216;6.778;2023-05-24T01:05:15;11.10;1.00
13754;DHT22;6948;51.216;6.778;2023-05-24T01:07:52;11.20;1.00
13754;DHT22;6948;51.216;6.778;2023-05-24T01:10:55;11.20;1.00
13754;DHT22;6948;51.216;6.778;2023-05-24T01:16:21;11.20;1.00
13754;DHT22;6948;51.216;6.778;2023-05-24T01:18:53;11.00;1.00
13754;DHT22;6948;51.216;6.778;2023-05-24T01:24:40;10.90;1.00
13754;DHT22;6948;51.216;6.778;2023-05-24T01:27:11;10.90;1.00
13754;DHT22;6948;51.216;6.778;2023-05-24T01:29:38;10.90;1.00
13754;DHT22;6948;51.216;6.778;2023-05-24T01:32:04;10.80;1.00
13754;DHT22;6948;51.216;6.778;2023-05-24T01:34:30;10.80;1.00
13754;DHT22;6948;51.216;6.778;2023-05-24T01:36:55;10.70;1.00
13754;DHT22;6948;51.216;6.778;2023-05-24T01:39:23;10.70;1.00
13754;DHT22;6948;51.216;6.778;2023-05-24T01:50:17;10.70;1.00
13754;DHT22;6948;51.216;6.778;2023-05-24T01:52:45;10.80;1.00
13754;DHT22;6948;51.216;6.778;2023-05-24T01:55:14;10.70;1.00
13754;DHT22;6948;51.216;6.778;2023-05-24T01:57:43;10.70;1.00
13754;DHT22;6948;51.216;6.778;2023-05-24T02:00:09;10.70;1.00
13754;DHT22;6948;51.216;6.778;2023-05-24T02:02:36;10.80;1.00
13754;DHT22;6948;51.216;6.778;2023-05-24T02:05:02;10.80;1.00
13754;DHT22;6948;51.216;6.778;2023-05-24T02:07:28;10.80;1.00
13754;DHT22;6948;51.216;6.778;2023-05-24T02:09:54;10.70;1.00
13754;DHT22;6948;51.216;6.778;2023-05-24T02:12:19;10.70;1.00
13754;DHT22;6948;51.216;6.778;2023-05-24T02:14:45;10.60;1.00
13754;DHT22;6948;51.216;6.778;2023-05-24T02:17:11;10.60;1.00
13754;DHT22;6948;51.216;6.778;2023-05-24T02:19:36;10.60;1.00
13754;DHT22;6948;51.216;6.778;2023-05-24T02:22:02;10.60;1.00
13754;DHT22;6948;51.216;6.778;2023-05-24T02:24:28;10.60;1.00
13754;DHT22;6948;51.216;6.778;2023-05-24T02:26:54;10.50;1.00
13754;DHT22;6948;51.216;6.778;2023-05-24T02:29:21;10.60;1.00
13754;DHT22;6948;51.216;6.778;2023-05-24T02:31:47;10.70;1.00
13754;DHT22;6948;51.216;6.778;2023-05-24T02:34:16;10.70;1.00
13754;DHT22;6948;51.216;6.778;2023-05-24T02:36:42;10.60;1.00
13754;DHT22;6948;51.216;6.778;2023-05-24T02:39:07;10.60;1.00
13754;DHT22;6948;51.216;6.778;2023-05-24T02:41:33;10.70;1.00
13754;DHT22;6948;51.216;6.778;2023-05-24T02:43:59;10.80;1.00
13754;DHT22;6948;51.216;6.778;2023-05-24T02:46:24;10.70;1.00
13754;DHT22;6948;51.216;6.778;2023-05-24T02:48:50;10.80;1.00
13754;DHT22;6948;51.216;6.778;2023-05-24T02:51:16;10.80;1.00
13754;DHT22;6948;51.216;6.778;2023-05-24T02:53:41;10.80;1.00
13754;DHT22;6948;51.216;6.778;2023-05-24T02:56:09;10.80;1.00
13754;DHT22;6948;51.216;6.778;2023-05-24T02:58:35;10.90;1.00
13754;DHT22;6948;51.216;6.778;2023-05-24T03:01:05;10.90;1.00
13754;DHT22;6948;51.216;6.778;2023-05-24T03:03:30;10.90;1.00
13754;DHT22;6948;51.216;6.778;2023-05-24T03:05:56;10.90;1.00
13754;DHT22;6948;51.216;6.778;2023-05-24T03:08:22;10.90;1.00
13754;DHT22;6948;51.216;6.778;2023-05-24T03:10:47;11.00;1.00
13754;DHT22;6948;51.216;6.778;2023-05-24T03:13:13;11.00;1.00
13754;DHT22;6948;51.216;6.778;2023-05-24T03:15:38;11.00;1.00
13754;DHT22;6948;51.216;6.778;2023-05-24T03:18:05;11.00;1.00
13754;DHT22;6948;51.216;6.778;2023-05-24T03:20:30;10.70;1.00
13754;DHT22;6948;51.216;6.778;2023-05-24T03:22:58;10.60;1.00
13754;DHT22;6948;51.216;6.778;2023-05-24T03:25:23;10.60;1.00
13754;DHT22;6948;51.216;6.778;2023-05-24T03:27:49;10.70;1.00
13754;DHT22;6948;51.216;6.778;2023-05-24T03:30:14;10.60;1.00
13754;DHT22;6948;51.216;6.778;2023-05-24T03:32:40;10.50;1.00
13754;DHT22;6948;51.216;6.778;2023-05-24T03:35:06;10.50;1.00
13754;DHT22;6948;51.216;6.778;2023-05-24T03:37:32;10.40;1.00
13754;DHT22;6948;51.216;6.778;2023-05-24T03:39:57;10.30;11.40
13754;DHT22;6948;51.216;6.778;2023-05-24T03:42:23;10.30;18.30
13754;DHT22;6948;51.216;6.778;2023-05-24T03:44:49;10.30;11.60
13754;DHT22;6948;51.216;6.778;2023-05-24T03:47:14;10.30;15.10
13754;DHT22;6948;51.216;6.778;2023-05-24T03:49:40;10.20;18.70
13754;DHT22;6948;51.216;6.778;2023-05-24T03:52:06;10.10;28.10
13754;DHT22;6948;51.216;6.778;2023-05-24T03:54:31;10.10;26.00
13754;DHT22;6948;51.216;6.778;2023-05-24T03:56:57;10.00;28.50
13754;DHT22;6948;51.216;6.778;2023-05-24T03:59:23;9.80;60.40
13754;DHT22;6948;51.216;6.778;2023-05-24T04:01:48;9.90;61.20
13754;DHT22;6948;51.216;6.778;2023-05-24T04:04:14;10.00;54.50
13754;DHT22;6948;51.216;6.778;2023-05-24T04:06:40;10.10;35.80
13754;DHT22;6948;51.216;6.778;2023-05-24T04:09:06;10.20;35.10
13754;DHT22;6948;51.216;6.778;2023-05-24T04:11:32;10.20;27.30
13754;DHT22;6948;51.216;6.778;2023-05-24T04:13:58;10.10;36.10
13754;DHT22;6948;51.216;6.778;2023-05-24T04:16:25;10.10;51.60
13754;DHT22;6948;51.216;6.778;2023-05-24T04:18:52;10.00;54.20
13754;DHT22;6948;51.216;6.778;2023-05-24T04:21:18;9.90;65.60
13754;DHT22;6948;51.216;6.778;2023-05-24T04:23:44;9.90;72.50
13754;DHT22;6948;51.216;6.778;2023-05-24T04:26:09;9.80;75.90
13754;DHT22;6948;51.216;6.778;2023-05-24T04:28:35;9.80;68.70
13754;DHT22;6948;51.216;6.778;2023-05-24T04:31:04;9.80;82.20
13754;DHT22;6948;51.216;6.778;2023-05-24T04:33:31;9.90;88.30
13754;DHT22;6948;51.216;6.778;2023-05-24T04:35:57;10.00;66.00
13754;DHT22;6948;51.216;6.778;2023-05-24T04:38:25;10.00;86.50
13754;DHT22;6948;51.216;6.778;2023-05-24T04:40:54;10.10;78.40
13754;DHT22;6948;51.216;6.778;2023-05-24T04:43:21;10.10;77.70
13754;DHT22;6948;51.216;6.778;2023-05-24T04:45:47;10.20;87.00
13754;DHT22;6948;51.216;6.778;2023-05-24T04:48:12;10.20;91.50
13754;DHT22;6948;51.216;6.778;2023-05-24T04:50:38;10.40;71.90
13754;DHT22;6948;51.216;6.778;2023-05-24T04:53:04;10.40;78.20
13754;DHT22;6948;51.216;6.778;2023-05-24T04:55:30;10.50;76.90
13754;DHT22;6948;51.216;6.778;2023-05-24T04:57:56;10.60;74.00
13754;DHT22;6948;51.216;6.778;2023-05-24T05:00:22;10.80;58.70
13754;DHT22;6948;51.216;6.778;2023-05-24T05:02:48;10.90;61.70
13754;DHT22;6948;51.216;6.778;2023-05-24T05:05:14;11.20;21.10
13754;DHT22;6948;51.216;6.778;2023-05-24T05:07:40;11.30;5.00
13754;DHT22;6948;51.216;6.778;2023-05-24T05:10:07;11.30;11.30
13754;DHT22;6948;51.216;6.778;2023-05-24T05:12:32;11.40;13.10
13754;DHT22;6948;51.216;6.778;2023-05-24T05:14:58;11.50;1.00
13754;DHT22;6948;51.216;6.778;2023-05-24T05:17:23;11.40;1.00
13754;DHT22;6948;51.216;6.778;2023-05-24T05:19:49;11.30;1.80
13754;DHT22;6948;51.216;6.778;2023-05-24T05:22:15;11.50;1.00
13754;DHT22;6948;51.216;6.778;2023-05-24T05:24:40;11.40;1.00
13754;DHT22;6948;51.216;6.778;2023-05-24T05:27:06;11.40;15.60
13754;DHT22;6948;51.216;6.778;2023-05-24T05:29:32;11.50;8.40
13754;DHT22;6948;51.216;6.778;2023-05-24T05:31:58;11.50;8.40
13754;DHT22;6948;51.216;6.778;2023-05-24T05:34:23;11.50;19.20
13754;DHT22;6948;51.216;6.778;2023-05-24T05:36:49;11.60;6.40
13754;DHT22;6948;51.216;6.778;2023-05-24T05:39:15;11.50;25.50
13754;DHT22;6948;51.216;6.778;2023-05-24T05:41:40;11.50;23.50
13754;DHT22;6948;51.216;6.778;2023-05-24T05:44:11;11.70;16.20
13754;DHT22;6948;51.216;6.778;2023-05-24T05:46:38;11.80;8.40
13754;DHT22;6948;51.216;6.778;2023-05-24T05:49:05;11.80;1.00
13754;DHT22;6948;51.216;6.778;2023-05-24T05:51:31;11.70;3.70
13754;DHT22;6948;51.216;6.778;2023-05-24T05:53:56;11.70;17.00
13754;DHT22;6948;51.216;6.778;2023-05-24T05:56:22;11.70;1.00
13754;DHT22;6948;51.216;6.778;2023-05-24T05:58:48;11.70;8.40
13754;DHT22;6948;51.216;6.778;2023-05-24T06:01:14;11.80;1.00
13754;DHT22;6948;51.216;6.778;2023-05-24T06:03:40;12.00;1.00
13754;DHT22;6948;51.216;6.778;2023-05-24T06:06:06;12.00;1.00
13754;DHT22;6948;51.216;6.778;2023-05-24T06:08:31;11.90;1.00
13754;DHT22;6948;51.216;6.778;2023-05-24T06:11:00;11.80;19.10
13754;DHT22;6948;51.216;6.778;2023-05-24T06:13:26;11.90;30.00
13754;DHT22;6948;51.216;6.778;2023-05-24T06:15:53;11.90;28.70
13754;DHT22;6948;51.216;6.778;2023-05-24T06:18:19;12.00;22.20
13754;DHT22;6948;51.216;6.778;2023-05-24T06:20:45;12.00;18.20
13754;DHT22;6948;51.216;6.778;2023-05-24T06:23:11;12.00;1.00
13754;DHT22;6948;51.216;6.778;2023-05-24T06:25:37;12.00;11.30
13754;DHT22;6948;51.216;6.778;2023-05-24T06:28:04;12.10;1.00
13754;DHT22;6948;51.216;6.778;2023-05-24T06:30:30;12.30;1.00
13754;DHT22;6948;51.216;6.778;2023-05-24T06:32:57;12.40;1.00
13754;DHT22;6948;51.216;6.778;2023-05-24T06:35:23;12.30;1.00
13754;DHT22;6948;51.216;6.778;2023-05-24T06:37:49;12.30;3.80
13754;DHT22;6948;51.216;6.778;2023-05-24T06:40:15;12.20;10.20
13754;DHT22;6948;51.216;6.778;2023-05-24T06:42:40;12.30;13.80
13754;DHT22;6948;51.216;6.778;2023-05-24T06:45:07;12.30;2.00
13754;DHT22;6948;51.216;6.778;2023-05-24T06:47:33;12.40;19.30
13754;DHT22;6948;51.216;6.778;2023-05-24T06:49:59;12.70;35.30
13754;DHT22;6948;51.216;6.778;2023-05-24T06:52:25;12.80;1.00
13754;DHT22;6948;51.216;6.778;2023-05-24T06:54:51;12.90;1.00
13754;DHT22;6948;51.216;6.778;2023-05-24T06:57:17;12.80;1.00
13754;DHT22;6948;51.216;6.778;2023-05-24T06:59:42;12.60;1.00
13754;DHT22;6948;51.216;6.778;2023-05-24T07:02:08;12.50;1.00
13754;DHT22;6948;51.216;6.778;2023-05-24T07:04:34;12.50;1.00
13754;DHT22;6948;51.216;6.778;2023-05-24T07:06:59;12.60;1.00
13754;DHT22;6948;51.216;6.778;2023-05-24T07:09:25;12.60;1.00
13754;DHT22;6948;51.216;6.778;2023-05-24T07:11:51;12.70;1.00
13754;DHT22;6948;51.216;6.778;2023-05-24T07:14:17;12.70;1.00
13754;DHT22;6948;51.216;6.778;2023-05-24T07:16:43;12.80;1.00
13754;DHT22;6948;51.216;6.778;2023-05-24T07:19:08;12.80;1.00
13754;DHT22;6948;51.216;6.778;2023-05-24T07:21:34;12.70;1.00
13754;DHT22;6948;51.216;6.778;2023-05-24T07:24:00;12.70;1.00
13754;DHT22;6948;51.216;6.778;2023-05-24T07:26:26;12.70;1.00
13754;DHT22;6948;51.216;6.778;2023-05-24T07:28:52;12.70;1.00
13754;DHT22;6948;51.216;6.778;2023-05-24T07:31:18;12.80;1.00
13754;DHT22;6948;51.216;6.778;2023-05-24T07:33:43;12.90;1.00
13754;DHT22;6948;51.216;6.778;2023-05-24T07:36:09;13.00;1.00
13754;DHT22;6948;51.216;6.778;2023-05-24T07:38:35;12.90;1.00
13754;DHT22;6948;51.216;6.778;2023-05-24T07:41:01;13.20;1.00
13754;DHT22;6948;51.216;6.778;2023-05-24T07:43:29;13.30;1.00
13754;DHT22;6948;51.216;6.778;2023-05-24T07:45:55;13.40;1.00
13754;DHT22;6948;51.216;6.778;2023-05-24T07:48:22;13.40;1.00
13754;DHT22;6948;51.216;6.778;2023-05-24T07:50:49;13.40;1.00
13754;DHT22;6948;51.216;6.778;2023-05-24T07:53:16;13.30;1.00
13754;DHT22;6948;51.216;6.778;2023-05-24T07:55:42;13.50;1.00
13754;DHT22;6948;51.216;6.778;2023-05-24T07:58:09;13.40;1.00
13754;DHT22;6948;51.216;6.778;2023-05-24T08:00:35;13.30;1.00
13754;DHT22;6948;51.216;6.778;2023-05-24T08:03:00;13.30;1.00
13754;DHT22;6948;51.216;6.778;2023-05-24T08:05:26;13.40;1.00
13754;DHT22;6948;51.216;6.778;2023-05-24T08:07:52;13.40;1.00
13754;DHT22;6948;51.216;6.778;2023-05-24T08:10:18;13.40;1.00
13754;DHT22;6948;51.216;6.778;2023-05-24T08:12:44;13.40;1.00
13754;DHT22;6948;51.216;6.778;2023-05-24T08:15:10;13.30;1.00
13754;DHT22;6948;51.216;6.778;2023-05-24T08:17:37;13.40;1.00
13754;DHT22;6948;51.216;6.778;2023-05-24T08:20:03;13.30;1.00
13754;DHT22;6948;51.216;6.778;2023-05-24T08:22:45;13.20;1.00
13754;DHT22;6948;51.216;6.778;2023-05-24T08:25:12;13.20;1.00
13754;DHT22;6948;51.216;6.778;2023-05-24T08:27:38;13.30;1.00
13754;DHT22;6948;51.216;6.778;2023-05-24T08:30:05;13.40;1.00
13754;DHT22;6948;51.216;6.778;2023-05-24T08:32:31;13.50;1.00
13754;DHT22;6948;51.216;6.778;2023-05-24T08:34:57;13.40;1.00
13754;DHT22;6948;51.216;6.778;2023-05-24T08:37:22;13.40;1.00
13754;DHT22;6948;51.216;6.778;2023-05-24T08:39:48;13.60;1.00
13754;DHT22;6948;51.216;6.778;2023-05-24T08:42:15;13.80;1.00
13754;DHT22;6948;51.216;6.778;2023-05-24T08:47:21;13.70;1.00
13754;DHT22;6948;51.216;6.778;2023-05-24T08:49:47;13.60;1.00
13754;DHT22;6948;51.216;6.778;2023-05-24T08:52:13;13.50;1.00
13754;DHT22;6948;51.216;6.778;2023-05-24T08:54:40;13.50;1.00
13754;DHT22;6948;51.216;6.778;2023-05-24T08:57:06;13.40;1.00
13754;DHT22;6948;51.216;6.778;2023-05-24T08:59:32;13.30;1.00
13754;DHT22;6948;51.216;6.778;2023-05-24T09:01:58;13.50;1.00
13754;DHT22;6948;51.216;6.778;2023-05-24T09:04:26;13.70;1.00
13754;DHT22;6948;51.216;6.778;2023-05-24T09:06:54;13.60;1.00
13754;DHT22;6948;51.216;6.778;2023-05-24T09:09:21;13.60;1.00
13754;DHT22;6948;51.216;6.778;2023-05-24T09:11:49;13.60;1.00
13754;DHT22;6948;51.216;6.778;2023-05-24T09:14:16;13.60;1.00
13754;DHT22;6948;51.216;6.778;2023-05-24T09:16:43;13.50;1.00
13754;DHT22;6948;51.216;6.778;2023-05-24T09:19:09;13.50;1.00
13754;DHT22;6948;51.216;6.778;2023-05-24T09:21:35;13.40;1.00
13754;DHT22;6948;51.216;6.778;2023-05-24T09:24:01;13.30;1.00
13754;DHT22;6948;51.216;6.778;2023-05-24T09:26:29;13.60;1.00
13754;DHT22;6948;51.216;6.778;2023-05-24T09:28:55;13.80;1.00
13754;DHT22;6948;51.216;6.778;2023-05-24T09:31:32;13.80;1.00
13754;DHT22;6948;51.216;6.778;2023-05-24T09:33:58;13.90;1.00
13754;DHT22;6948;51.216;6.778;2023-05-24T09:36:24;13.90;1.00
13754;DHT22;6948;51.216;6.778;2023-05-24T09:39:04;14.10;1.00
13754;DHT22;6948;51.216;6.778;2023-05-24T09:41:30;14.20;1.00
13754;DHT22;6948;51.216;6.778;2023-05-24T09:43:56;14.10;1.00
13754;DHT22;6948;51.216;6.778;2023-05-24T09:46:22;14.20;1.00
13754;DHT22;6948;51.216;6.778;2023-05-24T09:48:58;14.20;1.00
13754;DHT22;6948;51.216;6.778;2023-05-24T09:51:24;14.20;1.00
13754;DHT22;6948;51.216;6.778;2023-05-24T09:53:56;14.30;1.00
13754;DHT22;6948;51.216;6.778;2023-05-24T09:56:21;14.40;1.00
13754;DHT22;6948;51.216;6.778;2023-05-24T09:58:48;14.30;99.90
13754;DHT22;6948;51.216;6.778;2023-05-24T10:01:14;14.40;99.90
13754;DHT22;6948;51.216;6.778;2023-05-24T10:03:57;14.20;99.90
13754;DHT22;6948;51.216;6.778;2023-05-24T10:06:24;14.30;99.90
13754;DHT22;6948;51.216;6.778;2023-05-24T10:08:51;14.60;75.50
13754;DHT22;6948;51.216;6.778;2023-05-24T10:11:18;14.80;1.00
13754;DHT22;6948;51.216;6.778;2023-05-24T10:13:46;14.80;1.00
13754;DHT22;6948;51.216;6.778;2023-05-24T10:16:12;14.80;1.00
13754;DHT22;6948;51.216;6.778;2023-05-24T10:18:38;14.90;1.00
13754;DHT22;6948;51.216;6.778;2023-05-24T10:21:05;14.80;99.90
13754;DHT22;6948;51.216;6.778;2023-05-24T10:23:36;14.80;99.90
13754;DHT22;6948;51.216;6.778;2023-05-24T10:28:45;14.60;1.00
13754;DHT22;6948;51.216;6.778;2023-05-24T10:31:17;14.80;1.00
13754;DHT22;6948;51.216;6.778;2023-05-24T10:33:46;14.70;1.00
13754;DHT22;6948;51.216;6.778;2023-05-24T10:36:13;14.60;1.00
13754;DHT22;6948;51.216;6.778;2023-05-24T10:38:40;14.50;1.00
13754;DHT22;6948;51.216;6.778;2023-05-24T10:41:07;14.50;1.00
13754;DHT22;6948;51.216;6.778;2023-05-24T10:43:35;14.50;1.00
13754;DHT22;6948;51.216;6.778;2023-05-24T10:46:02;14.50;9.30
13754;DHT22;6948;51.216;6.778;2023-05-24T10:51:33;14.50;82.80
13754;DHT22;6948;51.216;6.778;2023-05-24T10:54:18;14.70;1.00
13754;DHT22;6948;51.216;6.778;2023-05-24T10:56:46;14.90;1.00
13754;DHT22;6948;51.216;6.778;2023-05-24T11:01:58;15.20;1.00
13754;DHT22;6948;51.216;6.778;2023-05-24T11:04:25;15.20;1.00
13754;DHT22;6948;51.216;6.778;2023-05-24T11:06:56;15.40;1.00
13754;DHT22;6948;51.216;6.778;2023-05-24T11:09:23;15.70;1.00
13754;DHT22;6948;51.216;6.778;2023-05-24T11:11:53;15.60;99.90
13754;DHT22;6948;51.216;6.778;2023-05-24T11:14:21;15.40;1.00
13754;DHT22;6948;51.216;6.778;2023-05-24T11:16:48;15.40;1.00
13754;DHT22;6948;51.216;6.778;2023-05-24T11:19:20;15.30;6.60
13754;DHT22;6948;51.216;6.778;2023-05-24T11:21:48;15.20;1.00
13754;DHT22;6948;51.216;6.778;2023-05-24T11:24:17;15.20;99.90
13754;DHT22;6948;51.216;6.778;2023-05-24T11:26:43;15.10;1.00
13754;DHT22;6948;51.216;6.778;2023-05-24T11:29:11;15.30;1.00
13754;DHT22;6948;51.216;6.778;2023-05-24T11:31:37;15.40;99.90
13754;DHT22;6948;51.216;6.778;2023-05-24T11:34:08;15.30;99.90
13754;DHT22;6948;51.216;6.778;2023-05-24T11:36:34;15.30;1.00
13754;DHT22;6948;51.216;6.778;2023-05-24T11:39:01;15.10;99.90
13754;DHT22;6948;51.216;6.778;2023-05-24T11:41:28;15.00;99.90
13754;DHT22;6948;51.216;6.778;2023-05-24T11:43:53;15.00;99.90
13754;DHT22;6948;51.216;6.778;2023-05-24T11:46:19;14.90;49.50
13754;DHT22;6948;51.216;6.778;2023-05-24T11:48:55;15.00;1.00
13754;DHT22;6948;51.216;6.778;2023-05-24T11:51:25;15.10;1.00
13754;DHT22;6948;51.216;6.778;2023-05-24T11:53:51;15.00;1.00
13754;DHT22;6948;51.216;6.778;2023-05-24T11:56:17;14.90;1.00
13754;DHT22;6948;51.216;6.778;2023-05-24T11:58:48;14.60;1.00
13754;DHT22;6948;51.216;6.778;2023-05-24T12:01:23;14.70;99.90
13754;DHT22;6948;51.216;6.778;2023-05-24T12:03:50;14.70;1.00
13754;DHT22;6948;51.216;6.778;2023-05-24T12:06:17;14.70;99.90
13754;DHT22;6948;51.216;6.778;2023-05-24T12:08:43;14.70;1.00
13754;DHT22;6948;51.216;6.778;2023-05-24T12:11:09;14.70;1.00
13754;DHT22;6948;51.216;6.778;2023-05-24T12:13:35;14.80;99.90
13754;DHT22;6948;51.216;6.778;2023-05-24T12:16:01;15.00;42.00
13754;DHT22;6948;51.216;6.778;2023-05-24T12:18:28;15.10;1.00
13754;DHT22;6948;51.216;6.778;2023-05-24T12:20:53;14.90;1.00
13754;DHT22;6948;51.216;6.778;2023-05-24T12:23:22;15.00;1.00
13754;DHT22;6948;51.216;6.778;2023-05-24T12:25:48;15.00;1.00
13754;DHT22;6948;51.216;6.778;2023-05-24T12:28:15;15.10;99.90
13754;DHT22;6948;51.216;6.778;2023-05-24T12:30:41;15.20;99.90
13754;DHT22;6948;51.216;6.778;2023-05-24T12:33:09;15.40;99.90
13754;DHT22;6948;51.216;6.778;2023-05-24T12:35:36;15.40;1.00
13754;DHT22;6948;51.216;6.778;2023-05-24T12:38:02;15.50;93.90
13754;DHT22;6948;51.216;6.778;2023-05-24T12:40:31;15.80;99.90
13754;DHT22;6948;51.216;6.778;2023-05-24T12:42:58;15.80;1.00
13754;DHT22;6948;51.216;6.778;2023-05-24T12:45:24;16.00;1.00
13754;DHT22;6948;51.216;6.778;2023-05-24T12:47:51;16.10;99.90
13754;DHT22;6948;51.216;6.778;2023-05-24T12:50:18;16.30;1.00
13754;DHT22;6948;51.216;6.778;2023-05-24T12:52:44;16.40;99.90
13754;DHT22;6948;51.216;6.778;2023-05-24T12:55:12;16.30;1.00
13754;DHT22;6948;51.216;6.778;2023-05-24T12:57:38;16.60;99.90
13754;DHT22;6948;51.216;6.778;2023-05-24T13:00:04;16.60;1.00
13754;DHT22;6948;51.216;6.778;2023-05-24T13:02:29;16.60;1.00
13754;DHT22;6948;51.216;6.778;2023-05-24T13:04:55;16.80;99.90
13754;DHT22;6948;51.216;6.778;2023-05-24T13:07:21;16.70;99.90
13754;DHT22;6948;51.216;6.778;2023-05-24T13:09:47;16.50;1.00
13754;DHT22;6948;51.216;6.778;2023-05-24T13:12:13;16.20;99.90
13754;DHT22;6948;51.216;6.778;2023-05-24T13:14:39;16.20;99.90
13754;DHT22;6948;51.216;6.778;2023-05-24T13:17:05;16.30;1.00
13754;DHT22;6948;51.216;6.778;2023-05-24T13:19:32;16.30;1.00
13754;DHT22;6948;51.216;6.778;2023-05-24T13:21:58;16.50;1.00
13754;DHT22;6948;51.216;6.778;2023-05-24T13:24:23;16.80;99.90
13754;DHT22;6948;51.216;6.778;2023-05-24T13:26:49;16.60;99.90
13754;DHT22;6948;51.216;6.778;2023-05-24T13:29:15;16.60;17.10
13754;DHT22;6948;51.216;6.778;2023-05-24T13:31:40;16.60;1.00
13754;DHT22;6948;51.216;6.778;2023-05-24T13:34:06;16.40;99.90
13754;DHT22;6948;51.216;6.778;2023-05-24T13:36:33;16.40;86.50
13754;DHT22;6948;51.216;6.778;2023-05-24T13:38:59;16.30;1.00
13754;DHT22;6948;51.216;6.778;2023-05-24T13:41:25;16.10;99.90
13754;DHT22;6948;51.216;6.778;2023-05-24T13:43:51;16.10;1.00
13754;DHT22;6948;51.216;6.778;2023-05-24T13:46:17;16.10;99.90
13754;DHT22;6948;51.216;6.778;2023-05-24T13:48:43;16.00;99.90
13754;DHT22;6948;51.216;6.778;2023-05-24T13:51:09;16.10;99.90
13754;DHT22;6948;51.216;6.778;2023-05-24T13:53:35;16.10;65.80
13754;DHT22;6948;51.216;6.778;2023-05-24T13:56:01;16.10;1.00
13754;DHT22;6948;51.216;6.778;2023-05-24T13:58:27;16.10;99.90
13754;DHT22;6948;51.216;6.778;2023-05-24T14:00:53;16.00;1.00
13754;DHT22;6948;51.216;6.778;2023-05-24T14:03:18;16.00;1.00
13754;DHT22;6948;51.216;6.778;2023-05-24T14:05:44;15.90;1.00
13754;DHT22;6948;51.216;6.778;2023-05-24T14:08:09;16.10;99.90
13754;DHT22;6948;51.216;6.778;2023-05-24T14:10:36;16.20;88.40
13754;DHT22;6948;51.216;6.778;2023-05-24T14:13:03;16.20;1.00
13754;DHT22;6948;51.216;6.778;2023-05-24T14:15:29;16.30;28.90
13754;DHT22;6948;51.216;6.778;2023-05-24T14:17:55;16.20;1.00
13754;DHT22;6948;51.216;6.778;2023-05-24T14:20:21;16.20;1.00
13754;DHT22;6948;51.216;6.778;2023-05-24T14:22:47;16.20;1.00
13754;DHT22;6948;51.216;6.778;2023-05-24T14:25:13;16.30;99.90
13754;DHT22;6948;51.216;6.778;2023-05-24T14:27:39;16.40;1.00
13754;DHT22;6948;51.216;6.778;2023-05-24T14:30:06;16.50;1.00
13754;DHT22;6948;51.216;6.778;2023-05-24T14:32:32;16.40;99.90
13754;DHT22;6948;51.216;6.778;2023-05-24T14:34:58;16.30;1.00
13754;DHT22;6948;51.216;6.778;2023-05-24T14:37:23;16.50;99.90
13754;DHT22;6948;51.216;6.778;2023-05-24T14:39:49;16.70;99.90
13754;DHT22;6948;51.216;6.778;2023-05-24T14:42:15;16.80;99.90
13754;DHT22;6948;51.216;6.778;2023-05-24T14:44:40;16.70;99.90
13754;DHT22;6948;51.216;6.778;2023-05-24T14:47:06;16.70;99.90
13754;DHT22;6948;51.216;6.778;2023-05-24T14:49:32;16.70;99.90
13754;DHT22;6948;51.216;6.778;2023-05-24T14:51:57;16.60;1.00
13754;DHT22;6948;51.216;6.778;2023-05-24T14:54:23;16.40;99.90
13754;DHT22;6948;51.216;6.778;2023-05-24T14:56:48;16.50;1.00
13754;DHT22;6948;51.216;6.778;2023-05-24T14:59:14;16.30;1.00
13754;DHT22;6948;51.216;6.778;2023-05-24T15:01:40;16.30;1.00
13754;DHT22;6948;51.216;6.778;2023-05-24T15:04:06;16.50;99.90
13754;DHT22;6948;51.216;6.778;2023-05-24T15:06:32;16.50;1.00
13754;DHT22;6948;51.216;6.778;2023-05-24T15:09:00;16.40;1.00
13754;DHT22;6948;51.216;6.778;2023-05-24T15:11:27;16.30;99.90
13754;DHT22;6948;51.216;6.778;2023-05-24T15:13:53;16.40;99.90
13754;DHT22;6948;51.216;6.778;2023-05-24T15:16:23;16.40;65.20
13754;DHT22;6948;51.216;6.778;2023-05-24T15:18:49;16.30;99.90
13754;DHT22;6948;51.216;6.778;2023-05-24T15:21:15;16.30;1.00
13754;DHT22;6948;51.216;6.778;2023-05-24T15:23:40;16.30;1.00
13754;DHT22;6948;51.216;6.778;2023-05-24T15:26:06;16.40;1.00
13754;DHT22;6948;51.216;6.778;2023-05-24T15:28:32;16.30;1.00
13754;DHT22;6948;51.216;6.778;2023-05-24T15:30:58;16.50;99.90
13754;DHT22;6948;51.216;6.778;2023-05-24T15:33:25;16.60;99.90
13754;DHT22;6948;51.216;6.778;2023-05-24T15:35:51;16.50;99.90
13754;DHT22;6948;51.216;6.778;2023-05-24T15:38:17;16.20;99.90
13754;DHT22;6948;51.216;6.778;2023-05-24T15:40:43;16.20;1.00
13754;DHT22;6948;51.216;6.778;2023-05-24T15:43:09;16.20;99.90
13754;DHT22;6948;51.216;6.778;2023-05-24T15:45:35;16.30;1.00
13754;DHT22;6948;51.216;6.778;2023-05-24T15:48:01;16.20;99.90
13754;DHT22;6948;51.216;6.778;2023-05-24T15:50:29;16.10;1.00
13754;DHT22;6948;51.216;6.778;2023-05-24T15:52:56;16.10;99.90
13754;DHT22;6948;51.216;6.778;2023-05-24T15:55:22;16.10;3.10
13754;DHT22;6948;51.216;6.778;2023-05-24T15:57:47;16.00;99.90
13754;DHT22;6948;51.216;6.778;2023-05-24T16:00:13;16.00;28.60
13754;DHT22;6948;51.216;6.778;2023-05-24T16:02:39;16.20;99.90
13754;DHT22;6948;51.216;6.778;2023-05-24T16:05:05;16.30;1.00
13754;DHT22;6948;51.216;6.778;2023-05-24T16:07:31;16.30;99.90
13754;DHT22;6948;51.216;6.778;2023-05-24T16:09:57;16.20;1.00
13754;DHT22;6948;51.216;6.778;2023-05-24T16:12:23;16.20;99.90
13754;DHT22;6948;51.216;6.778;2023-05-24T16:14:48;16.10;86.90
13754;DHT22;6948;51.216;6.778;2023-05-24T16:17:14;16.10;1.00
13754;DHT22;6948;51.216;6.778;2023-05-24T16:19:40;16.10;1.00